sensor_id;sensor_type;location;lat;lon;timestamp;pressure;altitude;pressure_sealevel;temperature;humidity
62978;BME280;49073;42.352;23.808;2023-09-19T00:03:35;95187.81;;;13.82;83.21
62978;BME280;49073;42.352;23.808;2023-09-19T03:46:08;95094.16;;;12.39;82.05
62978;BME280;49073;42.352;23.808;2023-09-19T03:53:28;95096.56;;;12.25;82.08
62978;BME280;49073;42.352;23.808;2023-09-19T04:00:55;95090.25;;;12.13;84.35
62978;BME280;49073;42.352;23.808;2023-09-19T04:25:09;95102.53;;;12.18;82.67
62978;BME280;49073;42.352;23.808;2023-09-19T04:35:17;95107.88;;;12.18;84.44
62978;BME280;49073;42.352;23.808;2023-09-19T04:41:46;95107.88;;;12.18;84.81
62978;BME280;49073;42.352;23.808;2023-09-19T04:44:48;95101.19;;;12.28;84.99
62978;BME280;49073;42.352;23.808;2023-09-19T04:52:55;95101.56;;;12.69;86.28
62978;BME280;49073;42.352;23.808;2023-09-19T04:59:06;95110.72;;;12.68;88.86
62978;BME280;49073;42.352;23.808;2023-09-19T05:03:04;95103.06;;;12.47;90.83
62978;BME280;49073;42.352;23.808;2023-09-19T05:17:51;95110.56;;;12.84;91.52
62978;BME280;49073;42.352;23.808;2023-09-19T05:21:27;95105.63;;;12.86;92.82
62978;BME280;49073;42.352;23.808;2023-09-19T06:36:38;95055.63;;;14.77;92.01
62978;BME280;49073;42.352;23.808;2023-09-19T06:46:26;95065.28;;;15.38;92.22
62978;BME280;49073;42.352;23.808;2023-09-19T06:49:57;95056.06;;;15.39;90.79
62978;BME280;49073;42.352;23.808;2023-09-19T06:56:35;95061.97;;;15.70;90.71
62978;BME280;49073;42.352;23.808;2023-09-19T07:03:14;95053.69;;;16.00;88.78
62978;BME280;49073;42.352;23.808;2023-09-19T07:28:52;95055.75;;;16.65;81.38
62978;BME280;49073;42.352;23.808;2023-09-19T07:31:54;95061.91;;;16.55;80.20
62978;BME280;49073;42.352;23.808;2023-09-19T07:35:19;95057.25;;;16.48;80.58
62978;BME280;49073;42.352;23.808;2023-09-19T07:45:55;95040.78;;;16.64;80.11
62978;BME280;49073;42.352;23.808;2023-09-19T07:48:57;95037.31;;;16.67;79.48
62978;BME280;49073;42.352;23.808;2023-09-19T07:52:23;95041.91;;;16.85;78.97
62978;BME280;49073;42.352;23.808;2023-09-19T07:55:34;95047.31;;;17.07;79.70
62978;BME280;49073;42.352;23.808;2023-09-19T07:58:55;95046.94;;;17.15;78.51
62978;BME280;49073;42.352;23.808;2023-09-19T08:01:57;95037.66;;;17.35;77.75
62978;BME280;49073;42.352;23.808;2023-09-19T08:05:22;95038.00;;;17.55;76.06
62978;BME280;49073;42.352;23.808;2023-09-19T08:12:55;95037.91;;;17.87;74.52
62978;BME280;49073;42.352;23.808;2023-09-19T08:23:05;95039.28;;;18.25;73.15
62978;BME280;49073;42.352;23.808;2023-09-19T08:30:29;95031.16;;;18.32;73.11
62978;BME280;49073;42.352;23.808;2023-09-19T08:33:44;95027.31;;;18.33;73.11
62978;BME280;49073;42.352;23.808;2023-09-19T08:45:07;95019.88;;;18.48;72.12
62978;BME280;49073;42.352;23.808;2023-09-19T08:48:24;95010.97;;;18.51;73.12
62978;BME280;49073;42.352;23.808;2023-09-19T08:52:16;95009.00;;;18.59;71.19
62978;BME280;49073;42.352;23.808;2023-09-19T08:59:52;95013.59;;;18.62;71.94
62978;BME280;49073;42.352;23.808;2023-09-19T09:07:33;95003.75;;;18.90;71.26
62978;BME280;49073;42.352;23.808;2023-09-19T09:35:29;94978.16;;;19.44;67.43
62978;BME280;49073;42.352;23.808;2023-09-19T10:24:19;94953.41;;;20.86;61.12
62978;BME280;49073;42.352;23.808;2023-09-19T10:38:26;94935.53;;;21.13;61.31
62978;BME280;49073;42.352;23.808;2023-09-19T10:45:35;94930.91;;;21.33;60.07
62978;BME280;49073;42.352;23.808;2023-09-19T10:49:18;94936.31;;;21.33;60.69
62978;BME280;49073;42.352;23.808;2023-09-19T10:52:44;94927.91;;;21.48;60.36
62978;BME280;49073;42.352;23.808;2023-09-19T11:09:57;94904.38;;;21.98;55.99
62978;BME280;49073;42.352;23.808;2023-09-19T11:16:28;94905.94;;;22.32;56.24
62978;BME280;49073;42.352;23.808;2023-09-19T11:27:28;94888.72;;;22.39;56.24
62978;BME280;49073;42.352;23.808;2023-09-19T11:30:30;94888.09;;;22.64;55.66
62978;BME280;49073;42.352;23.808;2023-09-19T11:33:35;94885.25;;;22.55;54.78
62978;BME280;49073;42.352;23.808;2023-09-19T12:04:44;94855.03;;;22.36;53.23
62978;BME280;49073;42.352;23.808;2023-09-19T12:15:33;94837.09;;;23.15;53.95
62978;BME280;49073;42.352;23.808;2023-09-19T12:31:55;94817.03;;;23.51;49.78
62978;BME280;49073;42.352;23.808;2023-09-19T12:53:34;94792.47;;;23.54;53.78
62978;BME280;49073;42.352;23.808;2023-09-19T12:56:45;94793.78;;;23.76;51.16
62978;BME280;49073;42.352;23.808;2023-09-19T12:59:52;94793.22;;;23.81;50.17
62978;BME280;49073;42.352;23.808;2023-09-19T13:06:16;94792.00;;;24.08;49.66
62978;BME280;49073;42.352;23.808;2023-09-19T13:09:19;94796.34;;;23.92;49.28
62978;BME280;49073;42.352;23.808;2023-09-19T13:12:36;94781.47;;;23.45;49.31
62978;BME280;49073;42.352;23.808;2023-09-19T13:15:51;94782.28;;;23.16;51.85
62978;BME280;49073;42.352;23.808;2023-09-19T13:18:53;94774.25;;;23.13;53.53
62978;BME280;49073;42.352;23.808;2023-09-19T13:21:56;94774.34;;;23.09;53.30
62978;BME280;49073;42.352;23.808;2023-09-19T13:24:58;94771.81;;;22.89;52.83
62978;BME280;49073;42.352;23.808;2023-09-19T13:27:59;94777.44;;;22.81;52.77
62978;BME280;49073;42.352;23.808;2023-09-19T13:31:01;94780.38;;;22.74;56.04
62978;BME280;49073;42.352;23.808;2023-09-19T13:34:01;94767.41;;;22.65;54.08
62978;BME280;49073;42.352;23.808;2023-09-19T13:37:02;94768.75;;;22.74;55.23
62978;BME280;49073;42.352;23.808;2023-09-19T13:40:05;94767.97;;;22.73;53.47
62978;BME280;49073;42.352;23.808;2023-09-19T13:43:06;94773.28;;;23.06;54.56
62978;BME280;49073;42.352;23.808;2023-09-19T13:46:07;94769.41;;;23.33;52.06
62978;BME280;49073;42.352;23.808;2023-09-19T13:49:07;94765.47;;;23.34;52.01
62978;BME280;49073;42.352;23.808;2023-09-19T13:52:08;94762.88;;;23.44;52.09
62978;BME280;49073;42.352;23.808;2023-09-19T13:55:09;94768.31;;;23.44;51.98
62978;BME280;49073;42.352;23.808;2023-09-19T13:58:09;94777.66;;;23.43;52.68
62978;BME280;49073;42.352;23.808;2023-09-19T14:01:12;94768.31;;;23.44;51.35
62978;BME280;49073;42.352;23.808;2023-09-19T14:04:13;94762.88;;;23.44;50.54
62978;BME280;49073;42.352;23.808;2023-09-19T14:07:16;94765.94;;;23.33;51.60
62978;BME280;49073;42.352;23.808;2023-09-19T14:10:18;94758.22;;;23.44;52.90
62978;BME280;49073;42.352;23.808;2023-09-19T14:13:19;94772.31;;;23.52;53.25
62978;BME280;49073;42.352;23.808;2023-09-19T14:16:20;94763.41;;;23.38;51.93
62978;BME280;49073;42.352;23.808;2023-09-19T14:19:22;94766.13;;;23.25;53.39
62978;BME280;49073;42.352;23.808;2023-09-19T14:22:23;94757.94;;;23.13;52.59
62978;BME280;49073;42.352;23.808;2023-09-19T14:25:24;94766.53;;;22.98;53.20
62978;BME280;49073;42.352;23.808;2023-09-19T14:28:25;94759.97;;;22.95;52.04
62978;BME280;49073;42.352;23.808;2023-09-19T14:31:26;94750.72;;;22.93;53.77
62978;BME280;49073;42.352;23.808;2023-09-19T14:34:28;94753.88;;;22.91;54.53
62978;BME280;49073;42.352;23.808;2023-09-19T14:37:28;94750.84;;;22.89;54.45
62978;BME280;49073;42.352;23.808;2023-09-19T14:40:29;94746.97;;;23.03;52.85
62978;BME280;49073;42.352;23.808;2023-09-19T14:43:31;94753.06;;;23.07;53.56
62978;BME280;49073;42.352;23.808;2023-09-19T14:46:33;94751.28;;;23.01;53.27
62978;BME280;49073;42.352;23.808;2023-09-19T14:49:34;94740.41;;;22.88;53.19
62978;BME280;49073;42.352;23.808;2023-09-19T14:52:35;94741.72;;;22.96;53.92
62978;BME280;49073;42.352;23.808;2023-09-19T14:55:37;94740.94;;;22.83;53.38
62978;BME280;49073;42.352;23.808;2023-09-19T14:58:42;94741.25;;;22.72;54.24
62978;BME280;49073;42.352;23.808;2023-09-19T15:01:42;94749.25;;;22.62;54.24
62978;BME280;49073;42.352;23.808;2023-09-19T15:04:43;94746.34;;;22.40;54.33
62978;BME280;49073;42.352;23.808;2023-09-19T15:07:47;94751.03;;;22.23;55.54
62978;BME280;49073;42.352;23.808;2023-09-19T15:10:51;94747.22;;;22.20;55.77
62978;BME280;49073;42.352;23.808;2023-09-19T15:13:53;94747.56;;;22.22;56.46
62978;BME280;49073;42.352;23.808;2023-09-19T15:16:57;94759.38;;;22.16;55.33
62978;BME280;49073;42.352;23.808;2023-09-19T15:19:57;94758.25;;;22.13;56.10
62978;BME280;49073;42.352;23.808;2023-09-19T15:22:58;94759.59;;;22.21;58.34
62978;BME280;49073;42.352;23.808;2023-09-19T15:26:01;94755.28;;;22.07;55.70
62978;BME280;49073;42.352;23.808;2023-09-19T15:29:01;94751.69;;;21.98;55.95
62978;BME280;49073;42.352;23.808;2023-09-19T15:32:02;94750.00;;;21.87;57.19
62978;BME280;49073;42.352;23.808;2023-09-19T15:35:03;94752.28;;;21.89;57.61
62978;BME280;49073;42.352;23.808;2023-09-19T15:38:04;94763.91;;;21.89;60.76
62978;BME280;49073;42.352;23.808;2023-09-19T15:41:04;94760.75;;;21.91;63.79
62978;BME280;49073;42.352;23.808;2023-09-19T15:44:17;94767.19;;;21.80;63.44
62978;BME280;49073;42.352;23.808;2023-09-19T15:47:19;94762.38;;;21.72;64.16
62978;BME280;49073;42.352;23.808;2023-09-19T15:50:20;94761.69;;;21.68;64.95
62978;BME280;49073;42.352;23.808;2023-09-19T15:53:21;94759.97;;;21.57;65.71
62978;BME280;49073;42.352;23.808;2023-09-19T15:56:23;94758.25;;;21.47;66.50
62978;BME280;49073;42.352;23.808;2023-09-19T15:59:24;94762.66;;;21.41;67.12
62978;BME280;49073;42.352;23.808;2023-09-19T16:02:24;94754.09;;;21.26;67.65
62978;BME280;49073;42.352;23.808;2023-09-19T16:05:27;94760.22;;;21.10;68.67
62978;BME280;49073;42.352;23.808;2023-09-19T16:08:28;94763.53;;;21.01;70.09
62978;BME280;49073;42.352;23.808;2023-09-19T16:11:29;94761.09;;;20.86;69.90
62978;BME280;49073;42.352;23.808;2023-09-19T16:14:30;94775.66;;;20.72;70.37
62978;BME280;49073;42.352;23.808;2023-09-19T16:17:31;94768.59;;;20.58;70.55
62978;BME280;49073;42.352;23.808;2023-09-19T16:20:31;94771.81;;;20.49;70.55
62978;BME280;49073;42.352;23.808;2023-09-19T16:23:33;94783.56;;;20.43;70.43
62978;BME280;49073;42.352;23.808;2023-09-19T16:26:36;94781.78;;;20.32;70.65
62978;BME280;49073;42.352;23.808;2023-09-19T16:29:37;94782.34;;;20.24;71.24
62978;BME280;49073;42.352;23.808;2023-09-19T16:32:38;94788.84;;;20.06;71.30
62978;BME280;49073;42.352;23.808;2023-09-19T16:35:38;94791.38;;;19.93;71.20
62978;BME280;49073;42.352;23.808;2023-09-19T16:38:42;94798.75;;;19.89;71.41
62978;BME280;49073;42.352;23.808;2023-09-19T16:41:44;94794.97;;;19.83;71.28
62978;BME280;49073;42.352;23.808;2023-09-19T16:44:44;94797.53;;;19.66;72.11
62978;BME280;49073;42.352;23.808;2023-09-19T16:47:45;94807.00;;;19.54;72.38
62978;BME280;49073;42.352;23.808;2023-09-19T16:50:46;94798.56;;;19.48;72.92
62978;BME280;49073;42.352;23.808;2023-09-19T16:53:46;94793.72;;;19.36;73.47
62978;BME280;49073;42.352;23.808;2023-09-19T16:56:49;94803.03;;;19.31;73.61
62978;BME280;49073;42.352;23.808;2023-09-19T16:59:50;94803.56;;;19.23;73.55
62978;BME280;49073;42.352;23.808;2023-09-19T17:02:50;94810.59;;;19.16;74.31
62978;BME280;49073;42.352;23.808;2023-09-19T17:05:59;94811.59;;;18.95;75.16
62978;BME280;49073;42.352;23.808;2023-09-19T17:08:59;94806.94;;;18.96;74.15
62978;BME280;49073;42.352;23.808;2023-09-19T17:12:00;94821.59;;;18.95;73.38
62978;BME280;49073;42.352;23.808;2023-09-19T17:15:03;94816.75;;;18.82;73.92
62978;BME280;49073;42.352;23.808;2023-09-19T17:18:05;94825.38;;;18.70;74.71
62978;BME280;49073;42.352;23.808;2023-09-19T17:21:06;94823.25;;;18.85;74.11
62978;BME280;49073;42.352;23.808;2023-09-19T17:24:08;94824.06;;;18.82;75.24
62978;BME280;49073;42.352;23.808;2023-09-19T17:27:09;94826.16;;;18.67;75.20
62978;BME280;49073;42.352;23.808;2023-09-19T17:30:12;94823.22;;;18.54;75.73
62978;BME280;49073;42.352;23.808;2023-09-19T17:33:15;94830.22;;;18.48;76.40
62978;BME280;49073;42.352;23.808;2023-09-19T17:36:22;94833.34;;;18.42;75.95
62978;BME280;49073;42.352;23.808;2023-09-19T17:39:22;94828.75;;;18.39;75.82
62978;BME280;49073;42.352;23.808;2023-09-19T17:42:24;94834.59;;;18.30;76.28
62978;BME280;49073;42.352;23.808;2023-09-19T17:45:24;94827.41;;;18.16;76.75
62978;BME280;49073;42.352;23.808;2023-09-19T17:48:25;94837.88;;;18.07;76.82
62978;BME280;49073;42.352;23.808;2023-09-19T17:51:26;94835.63;;;18.02;77.73
62978;BME280;49073;42.352;23.808;2023-09-19T17:54:29;94839.84;;;17.99;78.48
62978;BME280;49073;42.352;23.808;2023-09-19T17:57:31;94846.75;;;18.08;78.71
62978;BME280;49073;42.352;23.808;2023-09-19T18:00:31;94854.91;;;17.93;78.89
62978;BME280;49073;42.352;23.808;2023-09-19T18:03:35;94849.50;;;17.93;79.03
62978;BME280;49073;42.352;23.808;2023-09-19T18:06:35;94848.03;;;17.88;79.81
62978;BME280;49073;42.352;23.808;2023-09-19T18:09:38;94856.91;;;17.85;79.73
62978;BME280;49073;42.352;23.808;2023-09-19T18:12:38;94854.47;;;18.06;79.89
62978;BME280;49073;42.352;23.808;2023-09-19T18:15:39;94854.47;;;18.06;79.76
62978;BME280;49073;42.352;23.808;2023-09-19T18:18:40;94864.91;;;17.96;79.88
62978;BME280;49073;42.352;23.808;2023-09-19T18:21:43;94861.44;;;17.96;80.30
62978;BME280;49073;42.352;23.808;2023-09-19T18:24:46;94861.41;;;18.07;80.45
62978;BME280;49073;42.352;23.808;2023-09-19T18:27:47;94858.59;;;18.17;80.73
62978;BME280;49073;42.352;23.808;2023-09-19T18:30:48;94860.25;;;18.08;80.52
62978;BME280;49073;42.352;23.808;2023-09-19T18:33:49;94859.81;;;18.09;80.90
62978;BME280;49073;42.352;23.808;2023-09-19T18:36:50;94862.97;;;17.97;81.78
62978;BME280;49073;42.352;23.808;2023-09-19T18:39:50;94867.13;;;18.12;81.16
62978;BME280;49073;42.352;23.808;2023-09-19T18:42:51;94865.91;;;18.21;80.25
62978;BME280;49073;42.352;23.808;2023-09-19T18:45:56;94874.06;;;18.13;80.45
62978;BME280;49073;42.352;23.808;2023-09-19T18:48:57;94880.72;;;18.01;80.96
62978;BME280;49073;42.352;23.808;2023-09-19T18:51:58;94877.53;;;18.10;81.07
62978;BME280;49073;42.352;23.808;2023-09-19T18:54:58;94882.56;;;18.12;80.94
62978;BME280;49073;42.352;23.808;2023-09-19T18:57:59;94879.00;;;18.18;80.87
62978;BME280;49073;42.352;23.808;2023-09-19T19:01:11;94881.72;;;18.18;80.94
62978;BME280;49073;42.352;23.808;2023-09-19T19:04:11;94892.94;;;18.13;81.54
62978;BME280;49073;42.352;23.808;2023-09-19T19:07:16;94892.97;;;18.10;80.90
62978;BME280;49073;42.352;23.808;2023-09-19T19:10:22;94889.16;;;18.00;81.20
62978;BME280;49073;42.352;23.808;2023-09-19T19:13:41;94887.03;;;17.73;82.42
62978;BME280;49073;42.352;23.808;2023-09-19T19:17:06;94885.03;;;17.84;82.16
62978;BME280;49073;42.352;23.808;2023-09-19T19:20:12;94885.81;;;17.81;81.51
62978;BME280;49073;42.352;23.808;2023-09-19T19:23:14;94890.88;;;17.68;81.95
62978;BME280;49073;42.352;23.808;2023-09-19T19:26:14;94885.50;;;17.72;81.98
62978;BME280;49073;42.352;23.808;2023-09-19T19:29:17;94889.72;;;17.73;81.45
62978;BME280;49073;42.352;23.808;2023-09-19T19:32:18;94894.75;;;17.71;81.71
62978;BME280;49073;42.352;23.808;2023-09-19T19:35:18;94883.22;;;17.63;82.20
62978;BME280;49073;42.352;23.808;2023-09-19T19:38:19;94879.78;;;17.55;82.75
62978;BME280;49073;42.352;23.808;2023-09-19T19:41:24;94870.94;;;17.55;82.78
62978;BME280;49073;42.352;23.808;2023-09-19T19:44:24;94879.03;;;17.55;83.06
62978;BME280;49073;42.352;23.808;2023-09-19T19:47:26;94873.28;;;17.49;82.87
62978;BME280;49073;42.352;23.808;2023-09-19T19:50:29;94872.53;;;17.49;82.74
62978;BME280;49073;42.352;23.808;2023-09-19T19:53:29;94880.94;;;17.54;82.02
62978;BME280;49073;42.352;23.808;2023-09-19T19:56:31;94877.97;;;17.34;82.64
62978;BME280;49073;42.352;23.808;2023-09-19T19:59:33;94868.75;;;17.32;82.91
62978;BME280;49073;42.352;23.808;2023-09-19T20:02:34;94860.69;;;17.28;83.41
62978;BME280;49073;42.352;23.808;2023-09-19T20:05:38;94869.13;;;17.34;83.02
62978;BME280;49073;42.352;23.808;2023-09-19T20:08:41;94875.31;;;17.27;83.16
62978;BME280;49073;42.352;23.808;2023-09-19T20:11:42;94871.09;;;17.22;82.26
62978;BME280;49073;42.352;23.808;2023-09-19T20:14:42;94884.56;;;17.19;81.67
62978;BME280;49073;42.352;23.808;2023-09-19T20:17:43;94886.53;;;17.11;82.74
62978;BME280;49073;42.352;23.808;2023-09-19T20:20:43;94888.88;;;16.98;83.71
62978;BME280;49073;42.352;23.808;2023-09-19T20:23:44;94886.59;;;16.82;84.05
62978;BME280;49073;42.352;23.808;2023-09-19T20:26:46;94879.66;;;16.84;84.42
62978;BME280;49073;42.352;23.808;2023-09-19T20:29:46;94884.66;;;16.90;83.96
62978;BME280;49073;42.352;23.808;2023-09-19T20:32:47;94883.47;;;17.05;83.67
62978;BME280;49073;42.352;23.808;2023-09-19T20:35:48;94891.16;;;17.14;83.35
62978;BME280;49073;42.352;23.808;2023-09-19T20:38:49;94886.94;;;16.95;84.50
62978;BME280;49073;42.352;23.808;2023-09-19T20:41:50;94894.63;;;16.93;84.89
62978;BME280;49073;42.352;23.808;2023-09-19T20:44:51;94901.16;;;17.06;85.16
62978;BME280;49073;42.352;23.808;2023-09-19T20:47:55;94898.06;;;17.08;84.07
62978;BME280;49073;42.352;23.808;2023-09-19T20:51:07;94900.38;;;17.13;83.58
62978;BME280;49073;42.352;23.808;2023-09-19T20:54:08;94895.41;;;17.04;84.18
62978;BME280;49073;42.352;23.808;2023-09-19T20:57:09;94891.16;;;16.96;85.59
62978;BME280;49073;42.352;23.808;2023-09-19T21:00:10;94895.06;;;16.77;86.97
62978;BME280;49073;42.352;23.808;2023-09-19T21:03:11;94900.06;;;16.75;86.64
62978;BME280;49073;42.352;23.808;2023-09-19T21:06:16;94911.94;;;17.02;85.44
62978;BME280;49073;42.352;23.808;2023-09-19T21:09:16;94920.41;;;17.01;85.47
62978;BME280;49073;42.352;23.808;2023-09-19T21:12:17;94935.03;;;16.93;86.29
62978;BME280;49073;42.352;23.808;2023-09-19T21:15:18;94942.31;;;16.96;84.76
62978;BME280;49073;42.352;23.808;2023-09-19T21:18:19;94965.38;;;17.22;85.86
62978;BME280;49073;42.352;23.808;2023-09-19T21:21:19;95002.72;;;17.13;86.62
62978;BME280;49073;42.352;23.808;2023-09-19T21:24:21;95035.78;;;17.02;83.65
62978;BME280;49073;42.352;23.808;2023-09-19T21:27:22;95024.63;;;17.15;79.95
62978;BME280;49073;42.352;23.808;2023-09-19T21:30:23;95028.06;;;17.34;78.89
62978;BME280;49073;42.352;23.808;2023-09-19T21:33:24;95049.59;;;17.30;79.40
62978;BME280;49073;42.352;23.808;2023-09-19T21:36:24;95048.81;;;17.37;79.48
62978;BME280;49073;42.352;23.808;2023-09-19T21:39:29;95063.06;;;17.44;79.57
62978;BME280;49073;42.352;23.808;2023-09-19T21:42:30;95066.84;;;17.62;80.10
62978;BME280;49073;42.352;23.808;2023-09-19T21:45:34;95066.03;;;17.79;80.43
62978;BME280;49073;42.352;23.808;2023-09-19T21:48:35;95067.94;;;17.89;80.67
62978;BME280;49073;42.352;23.808;2023-09-19T21:51:36;95065.22;;;17.97;81.29
62978;BME280;49073;42.352;23.808;2023-09-19T21:54:36;95074.44;;;17.99;82.36
62978;BME280;49073;42.352;23.808;2023-09-19T21:57:37;95067.13;;;18.07;82.73
62978;BME280;49073;42.352;23.808;2023-09-19T22:00:38;95069.03;;;18.10;83.89
62978;BME280;49073;42.352;23.808;2023-09-19T22:03:39;95062.53;;;18.00;84.88
62978;BME280;49073;42.352;23.808;2023-09-19T22:06:40;95074.81;;;18.05;84.96
62978;BME280;49073;42.352;23.808;2023-09-19T22:09:41;95067.91;;;18.04;84.89
62978;BME280;49073;42.352;23.808;2023-09-19T22:12:42;95065.56;;;18.06;84.96
62978;BME280;49073;42.352;23.808;2023-09-19T22:15:44;95061.72;;;18.07;85.07
62978;BME280;49073;42.352;23.808;2023-09-19T22:18:46;95053.97;;;18.16;84.27
62978;BME280;49073;42.352;23.808;2023-09-19T22:21:46;95052.44;;;18.15;84.18
62978;BME280;49073;42.352;23.808;2023-09-19T22:24:51;95036.63;;;18.17;84.36
62978;BME280;49073;42.352;23.808;2023-09-19T22:27:54;95037.78;;;18.20;85.95
62978;BME280;49073;42.352;23.808;2023-09-19T22:30:56;95040.06;;;18.25;85.59
62978;BME280;49073;42.352;23.808;2023-09-19T22:33:57;95039.69;;;18.20;85.92
62978;BME280;49073;42.352;23.808;2023-09-19T22:36:59;95024.66;;;18.22;86.37
62978;BME280;49073;42.352;23.808;2023-09-19T22:40:01;95028.91;;;18.23;88.47
62978;BME280;49073;42.352;23.808;2023-09-19T22:43:03;95013.91;;;18.15;89.21
62978;BME280;49073;42.352;23.808;2023-09-19T22:46:07;95010.81;;;18.20;89.77
62978;BME280;49073;42.352;23.808;2023-09-19T22:49:11;95019.63;;;18.24;91.16
62978;BME280;49073;42.352;23.808;2023-09-19T22:52:18;95013.50;;;18.20;91.51
62978;BME280;49073;42.352;23.808;2023-09-19T22:55:22;94998.53;;;18.12;92.02
62978;BME280;49073;42.352;23.808;2023-09-19T22:58:25;94990.81;;;18.10;92.54
62978;BME280;49073;42.352;23.808;2023-09-19T23:01:29;94972.31;;;18.12;92.23
62978;BME280;49073;42.352;23.808;2023-09-19T23:04:36;94966.91;;;18.16;91.25
62978;BME280;49073;42.352;23.808;2023-09-19T23:07:38;94963.13;;;17.99;92.33
62978;BME280;49073;42.352;23.808;2023-09-19T23:10:44;94960.06;;;18.00;92.79
62978;BME280;49073;42.352;23.808;2023-09-19T23:13:48;94955.13;;;17.84;93.49
62978;BME280;49073;42.352;23.808;2023-09-19T23:16:48;94954.41;;;17.73;92.96
62978;BME280;49073;42.352;23.808;2023-09-19T23:19:57;94947.13;;;17.63;93.51
62978;BME280;49073;42.352;23.808;2023-09-19T23:22:59;94938.31;;;17.55;94.21
62978;BME280;49073;42.352;23.808;2023-09-19T23:26:00;94942.53;;;17.56;94.08
62978;BME280;49073;42.352;23.808;2023-09-19T23:29:06;94931.03;;;17.48;93.91
62978;BME280;49073;42.352;23.808;2023-09-19T23:32:09;94933.75;;;17.41;93.02
62978;BME280;49073;42.352;23.808;2023-09-19T23:35:15;94941.81;;;17.37;94.15
62978;BME280;49073;42.352;23.808;2023-09-19T23:38:18;94936.50;;;17.23;94.03
62978;BME280;49073;42.352;23.808;2023-09-19T23:41:18;94939.22;;;17.19;94.74
62978;BME280;49073;42.352;23.808;2023-09-19T23:44:21;94940.41;;;17.07;95.10
62978;BME280;49073;42.352;23.808;2023-09-19T23:47:21;94931.53;;;17.14;95.35
62978;BME280;49073;42.352;23.808;2023-09-19T23:50:22;94942.72;;;17.09;95.43
62978;BME280;49073;42.352;23.808;2023-09-19T23:53:23;94945.78;;;17.00;96.17
62978;BME280;49073;42.352;23.808;2023-09-19T23:56:24;94947.72;;;17.03;96.64
62978;BME280;49073;42.352;23.808;2023-09-19T23:59:24;94944.25;;;16.99;96.47
